sensor_id;sensor_type;location;lat;lon;timestamp;P1;durP1;ratioP1;P2;durP2;ratioP2
16117;SDS011;8163;50.118;5.342;2023-04-03T00:01:34;2.38;;;1.90;;
16117;SDS011;8163;50.118;5.342;2023-04-03T00:04:03;1.80;;;1.70;;
16117;SDS011;8163;50.118;5.342;2023-04-03T00:06:30;2.72;;;1.92;;
16117;SDS011;8163;50.118;5.342;2023-04-03T00:08:59;3.05;;;2.22;;
16117;SDS011;8163;50.118;5.342;2023-04-03T00:11:26;3.08;;;2.22;;
16117;SDS011;8163;50.118;5.342;2023-04-03T00:13:53;4.25;;;2.60;;
16117;SDS011;8163;50.118;5.342;2023-04-03T00:16:20;2.53;;;2.30;;
16117;SDS011;8163;50.118;5.342;2023-04-03T00:18:47;3.58;;;2.50;;
16117;SDS011;8163;50.118;5.342;2023-04-03T00:21:14;2.20;;;2.00;;
16117;SDS011;8163;50.118;5.342;2023-04-03T00:23:41;2.28;;;2.08;;
16117;SDS011;8163;50.118;5.342;2023-04-03T00:26:10;2.47;;;2.17;;
16117;SDS011;8163;50.118;5.342;2023-04-03T00:28:37;2.30;;;2.10;;
16117;SDS011;8163;50.118;5.342;2023-04-03T00:31:04;4.22;;;2.22;;
16117;SDS011;8163;50.118;5.342;2023-04-03T00:33:31;4.20;;;2.42;;
16117;SDS011;8163;50.118;5.342;2023-04-03T00:35:58;3.92;;;1.98;;
16117;SDS011;8163;50.118;5.342;2023-04-03T00:38:25;4.53;;;2.50;;
16117;SDS011;8163;50.118;5.342;2023-04-03T00:40:52;2.47;;;2.10;;
16117;SDS011;8163;50.118;5.342;2023-04-03T00:43:21;3.60;;;2.88;;
16117;SDS011;8163;50.118;5.342;2023-04-03T00:45:49;4.22;;;2.55;;
16117;SDS011;8163;50.118;5.342;2023-04-03T00:48:18;2.60;;;2.40;;
16117;SDS011;8163;50.118;5.342;2023-04-03T00:50:47;2.92;;;2.58;;
16117;SDS011;8163;50.118;5.342;2023-04-03T00:53:16;2.38;;;2.17;;
16117;SDS011;8163;50.118;5.342;2023-04-03T00:55:47;2.83;;;2.63;;
16117;SDS011;8163;50.118;5.342;2023-04-03T00:58:15;3.67;;;2.90;;
16117;SDS011;8163;50.118;5.342;2023-04-03T01:00:48;3.70;;;2.65;;
16117;SDS011;8163;50.118;5.342;2023-04-03T01:03:22;4.13;;;2.40;;
16117;SDS011;8163;50.118;5.342;2023-04-03T01:05:50;5.00;;;2.70;;
16117;SDS011;8163;50.118;5.342;2023-04-03T01:08:18;4.05;;;2.85;;
16117;SDS011;8163;50.118;5.342;2023-04-03T01:10:45;3.60;;;2.90;;
16117;SDS011;8163;50.118;5.342;2023-04-03T01:13:19;4.15;;;2.72;;
16117;SDS011;8163;50.118;5.342;2023-04-03T01:15:51;4.45;;;2.63;;
16117;SDS011;8163;50.118;5.342;2023-04-03T01:18:19;3.25;;;2.95;;
16117;SDS011;8163;50.118;5.342;2023-04-03T01:20:56;2.80;;;2.50;;
16117;SDS011;8163;50.118;5.342;2023-04-03T01:23:45;3.55;;;2.50;;
16117;SDS011;8163;50.118;5.342;2023-04-03T01:26:23;2.92;;;2.63;;
16117;SDS011;8163;50.118;5.342;2023-04-03T01:28:50;2.92;;;2.63;;
16117;SDS011;8163;50.118;5.342;2023-04-03T01:31:22;3.88;;;2.45;;
16117;SDS011;8163;50.118;5.342;2023-04-03T01:33:53;4.20;;;2.35;;
16117;SDS011;8163;50.118;5.342;2023-04-03T01:36:21;3.15;;;2.45;;
16117;SDS011;8163;50.118;5.342;2023-04-03T01:38:50;4.85;;;3.05;;
16117;SDS011;8163;50.118;5.342;2023-04-03T01:41:17;2.72;;;2.33;;
16117;SDS011;8163;50.118;5.342;2023-04-03T01:43:45;2.97;;;2.72;;
16117;SDS011;8163;50.118;5.342;2023-04-03T01:46:13;3.83;;;2.60;;
16117;SDS011;8163;50.118;5.342;2023-04-03T01:48:41;3.60;;;2.80;;
16117;SDS011;8163;50.118;5.342;2023-04-03T01:51:09;4.75;;;2.60;;
16117;SDS011;8163;50.118;5.342;2023-04-03T01:53:36;3.13;;;2.55;;
16117;SDS011;8163;50.118;5.342;2023-04-03T01:56:04;4.35;;;2.95;;
16117;SDS011;8163;50.118;5.342;2023-04-03T01:58:32;3.22;;;2.78;;
16117;SDS011;8163;50.118;5.342;2023-04-03T02:00:59;4.90;;;2.72;;
16117;SDS011;8163;50.118;5.342;2023-04-03T02:03:26;7.00;;;3.00;;
16117;SDS011;8163;50.118;5.342;2023-04-03T02:05:53;3.45;;;2.88;;
16117;SDS011;8163;50.118;5.342;2023-04-03T02:08:22;2.90;;;2.70;;
16117;SDS011;8163;50.118;5.342;2023-04-03T02:10:49;7.60;;;2.33;;
16117;SDS011;8163;50.118;5.342;2023-04-03T02:13:17;4.30;;;2.75;;
16117;SDS011;8163;50.118;5.342;2023-04-03T02:15:44;2.60;;;2.30;;
16117;SDS011;8163;50.118;5.342;2023-04-03T02:18:14;3.78;;;2.63;;
16117;SDS011;8163;50.118;5.342;2023-04-03T02:20:41;4.97;;;2.72;;
16117;SDS011;8163;50.118;5.342;2023-04-03T02:23:08;4.95;;;2.75;;
16117;SDS011;8163;50.118;5.342;2023-04-03T02:25:37;4.00;;;2.33;;
16117;SDS011;8163;50.118;5.342;2023-04-03T02:28:04;2.45;;;2.35;;
16117;SDS011;8163;50.118;5.342;2023-04-03T02:30:31;4.97;;;2.67;;
16117;SDS011;8163;50.118;5.342;2023-04-03T02:32:58;3.10;;;2.70;;
16117;SDS011;8163;50.118;5.342;2023-04-03T02:35:25;3.47;;;2.67;;
16117;SDS011;8163;50.118;5.342;2023-04-03T02:37:52;3.33;;;3.00;;
16117;SDS011;8163;50.118;5.342;2023-04-03T02:40:19;2.75;;;2.55;;
16117;SDS011;8163;50.118;5.342;2023-04-03T02:42:48;4.88;;;3.30;;
16117;SDS011;8163;50.118;5.342;2023-04-03T02:45:16;4.72;;;3.63;;
16117;SDS011;8163;50.118;5.342;2023-04-03T02:47:42;4.47;;;2.72;;
16117;SDS011;8163;50.118;5.342;2023-04-03T02:50:09;4.72;;;3.47;;
16117;SDS011;8163;50.118;5.342;2023-04-03T02:52:36;3.03;;;2.65;;
16117;SDS011;8163;50.118;5.342;2023-04-03T02:55:04;5.38;;;2.63;;
16117;SDS011;8163;50.118;5.342;2023-04-03T02:57:31;4.10;;;2.72;;
16117;SDS011;8163;50.118;5.342;2023-04-03T02:59:59;4.97;;;2.88;;
16117;SDS011;8163;50.118;5.342;2023-04-03T03:02:27;9.25;;;3.03;;
16117;SDS011;8163;50.118;5.342;2023-04-03T03:04:54;6.13;;;3.30;;
16117;SDS011;8163;50.118;5.342;2023-04-03T03:07:21;4.18;;;2.70;;
16117;SDS011;8163;50.118;5.342;2023-04-03T03:09:48;3.40;;;3.10;;
16117;SDS011;8163;50.118;5.342;2023-04-03T03:12:15;3.47;;;3.17;;
16117;SDS011;8163;50.118;5.342;2023-04-03T03:14:46;5.25;;;3.38;;
16117;SDS011;8163;50.118;5.342;2023-04-03T03:17:14;4.57;;;3.67;;
16117;SDS011;8163;50.118;5.342;2023-04-03T03:19:41;3.72;;;2.83;;
16117;SDS011;8163;50.118;5.342;2023-04-03T03:22:08;3.42;;;2.55;;
16117;SDS011;8163;50.118;5.342;2023-04-03T03:24:35;3.20;;;2.90;;
16117;SDS011;8163;50.118;5.342;2023-04-03T03:27:02;3.25;;;2.90;;
16117;SDS011;8163;50.118;5.342;2023-04-03T03:29:29;3.33;;;3.03;;
16117;SDS011;8163;50.118;5.342;2023-04-03T03:31:56;3.00;;;2.80;;
16117;SDS011;8163;50.118;5.342;2023-04-03T03:34:25;6.93;;;3.38;;
16117;SDS011;8163;50.118;5.342;2023-04-03T03:36:52;3.42;;;3.10;;
16117;SDS011;8163;50.118;5.342;2023-04-03T03:39:18;3.70;;;2.85;;
16117;SDS011;8163;50.118;5.342;2023-04-03T03:41:46;3.78;;;3.38;;
16117;SDS011;8163;50.118;5.342;2023-04-03T03:44:14;3.53;;;2.85;;
16117;SDS011;8163;50.118;5.342;2023-04-03T03:46:41;5.15;;;3.47;;
16117;SDS011;8163;50.118;5.342;2023-04-03T03:49:09;4.38;;;2.85;;
16117;SDS011;8163;50.118;5.342;2023-04-03T03:51:39;3.70;;;3.08;;
16117;SDS011;8163;50.118;5.342;2023-04-03T03:54:06;3.60;;;3.30;;
16117;SDS011;8163;50.118;5.342;2023-04-03T03:56:33;3.63;;;3.13;;
16117;SDS011;8163;50.118;5.342;2023-04-03T03:59:00;19.92;;;7.32;;
16117;SDS011;8163;50.118;5.342;2023-04-03T04:01:27;4.03;;;3.60;;
16117;SDS011;8163;50.118;5.342;2023-04-03T04:03:54;7.78;;;3.92;;
16117;SDS011;8163;50.118;5.342;2023-04-03T04:06:21;4.82;;;3.30;;
16117;SDS011;8163;50.118;5.342;2023-04-03T04:08:50;4.63;;;3.30;;
16117;SDS011;8163;50.118;5.342;2023-04-03T04:11:17;4.38;;;3.25;;
16117;SDS011;8163;50.118;5.342;2023-04-03T04:13:44;6.43;;;3.33;;
16117;SDS011;8163;50.118;5.342;2023-04-03T04:16:11;3.83;;;3.50;;
16117;SDS011;8163;50.118;5.342;2023-04-03T04:18:38;4.85;;;3.00;;
16117;SDS011;8163;50.118;5.342;2023-04-03T04:21:05;3.63;;;3.33;;
16117;SDS011;8163;50.118;5.342;2023-04-03T04:23:32;6.43;;;3.40;;
16117;SDS011;8163;50.118;5.342;2023-04-03T04:26:01;3.85;;;3.25;;
16117;SDS011;8163;50.118;5.342;2023-04-03T04:28:27;3.83;;;3.40;;
16117;SDS011;8163;50.118;5.342;2023-04-03T04:30:54;3.03;;;2.83;;
16117;SDS011;8163;50.118;5.342;2023-04-03T04:33:21;3.80;;;3.33;;
16117;SDS011;8163;50.118;5.342;2023-04-03T04:35:48;3.97;;;2.97;;
16117;SDS011;8163;50.118;5.342;2023-04-03T04:38:16;6.32;;;3.55;;
16117;SDS011;8163;50.118;5.342;2023-04-03T04:40:43;5.53;;;3.72;;
16117;SDS011;8163;50.118;5.342;2023-04-03T04:43:12;4.25;;;3.45;;
16117;SDS011;8163;50.118;5.342;2023-04-03T04:45:40;5.03;;;3.17;;
16117;SDS011;8163;50.118;5.342;2023-04-03T04:48:07;3.47;;;3.17;;
16117;SDS011;8163;50.118;5.342;2023-04-03T04:50:34;5.53;;;3.28;;
16117;SDS011;8163;50.118;5.342;2023-04-03T04:53:01;3.50;;;3.20;;
16117;SDS011;8163;50.118;5.342;2023-04-03T04:55:29;3.75;;;3.45;;
16117;SDS011;8163;50.118;5.342;2023-04-03T04:57:56;3.38;;;3.08;;
16117;SDS011;8163;50.118;5.342;2023-04-03T05:00:24;3.28;;;3.05;;
16117;SDS011;8163;50.118;5.342;2023-04-03T05:02:51;3.30;;;2.95;;
16117;SDS011;8163;50.118;5.342;2023-04-03T05:05:18;5.30;;;3.13;;
16117;SDS011;8163;50.118;5.342;2023-04-03T05:07:45;5.95;;;3.50;;
16117;SDS011;8163;50.118;5.342;2023-04-03T05:10:12;4.32;;;3.17;;
16117;SDS011;8163;50.118;5.342;2023-04-03T05:12:41;6.20;;;3.15;;
16117;SDS011;8163;50.118;5.342;2023-04-03T05:15:08;4.45;;;3.13;;
16117;SDS011;8163;50.118;5.342;2023-04-03T05:17:38;3.80;;;3.15;;
16117;SDS011;8163;50.118;5.342;2023-04-03T05:20:05;4.05;;;3.22;;
16117;SDS011;8163;50.118;5.342;2023-04-03T05:22:33;4.35;;;3.15;;
16117;SDS011;8163;50.118;5.342;2023-04-03T05:25:00;7.72;;;3.28;;
16117;SDS011;8163;50.118;5.342;2023-04-03T05:27:27;3.80;;;3.28;;
16117;SDS011;8163;50.118;5.342;2023-04-03T05:29:54;4.63;;;3.33;;
16117;SDS011;8163;50.118;5.342;2023-04-03T05:32:22;3.72;;;3.30;;
16117;SDS011;8163;50.118;5.342;2023-04-03T05:34:53;3.95;;;3.13;;
16117;SDS011;8163;50.118;5.342;2023-04-03T05:37:20;3.25;;;2.97;;
16117;SDS011;8163;50.118;5.342;2023-04-03T05:39:47;3.35;;;3.00;;
16117;SDS011;8163;50.118;5.342;2023-04-03T05:42:16;3.90;;;2.53;;
16117;SDS011;8163;50.118;5.342;2023-04-03T05:44:43;2.60;;;2.00;;
16117;SDS011;8163;50.118;5.342;2023-04-03T05:47:12;3.22;;;1.80;;
16117;SDS011;8163;50.118;5.342;2023-04-03T05:49:39;2.08;;;1.88;;
16117;SDS011;8163;50.118;5.342;2023-04-03T05:52:08;3.28;;;2.00;;
16117;SDS011;8163;50.118;5.342;2023-04-03T05:54:43;2.38;;;1.80;;
16117;SDS011;8163;50.118;5.342;2023-04-03T05:57:11;3.47;;;1.63;;
16117;SDS011;8163;50.118;5.342;2023-04-03T05:59:38;2.08;;;1.70;;
16117;SDS011;8163;50.118;5.342;2023-04-03T06:02:05;2.55;;;1.80;;
16117;SDS011;8163;50.118;5.342;2023-04-03T06:04:32;2.72;;;1.63;;
16117;SDS011;8163;50.118;5.342;2023-04-03T06:06:59;5.07;;;2.17;;
16117;SDS011;8163;50.118;5.342;2023-04-03T06:09:29;4.55;;;1.70;;
16117;SDS011;8163;50.118;5.342;2023-04-03T06:11:56;2.17;;;1.70;;
16117;SDS011;8163;50.118;5.342;2023-04-03T06:14:23;4.65;;;1.80;;
16117;SDS011;8163;50.118;5.342;2023-04-03T06:16:52;3.70;;;1.92;;
16117;SDS011;8163;50.118;5.342;2023-04-03T06:19:21;2.33;;;1.90;;
16117;SDS011;8163;50.118;5.342;2023-04-03T06:21:51;1.63;;;1.52;;
16117;SDS011;8163;50.118;5.342;2023-04-03T06:24:18;1.83;;;1.67;;
16117;SDS011;8163;50.118;5.342;2023-04-03T06:26:48;1.98;;;1.63;;
16117;SDS011;8163;50.118;5.342;2023-04-03T06:29:16;2.35;;;1.70;;
16117;SDS011;8163;50.118;5.342;2023-04-03T06:31:43;1.85;;;1.55;;
16117;SDS011;8163;50.118;5.342;2023-04-03T06:34:11;3.10;;;1.73;;
16117;SDS011;8163;50.118;5.342;2023-04-03T06:36:38;2.10;;;1.55;;
16117;SDS011;8163;50.118;5.342;2023-04-03T06:39:06;2.67;;;1.60;;
16117;SDS011;8163;50.118;5.342;2023-04-03T06:41:33;4.05;;;1.90;;
16117;SDS011;8163;50.118;5.342;2023-04-03T06:44:01;2.65;;;1.70;;
16117;SDS011;8163;50.118;5.342;2023-04-03T06:46:28;2.65;;;2.05;;
16117;SDS011;8163;50.118;5.342;2023-04-03T06:48:55;1.88;;;1.73;;
16117;SDS011;8163;50.118;5.342;2023-04-03T06:51:23;2.15;;;1.40;;
16117;SDS011;8163;50.118;5.342;2023-04-03T06:53:52;3.50;;;1.60;;
16117;SDS011;8163;50.118;5.342;2023-04-03T06:56:20;2.90;;;1.90;;
16117;SDS011;8163;50.118;5.342;2023-04-03T06:58:48;2.05;;;1.50;;
16117;SDS011;8163;50.118;5.342;2023-04-03T07:01:17;4.25;;;1.77;;
16117;SDS011;8163;50.118;5.342;2023-04-03T07:03:45;1.90;;;1.55;;
16117;SDS011;8163;50.118;5.342;2023-04-03T07:06:13;4.40;;;1.90;;
16117;SDS011;8163;50.118;5.342;2023-04-03T07:08:42;2.13;;;1.90;;
16117;SDS011;8163;50.118;5.342;2023-04-03T07:11:09;2.13;;;1.65;;
16117;SDS011;8163;50.118;5.342;2023-04-03T07:13:37;2.10;;;1.90;;
16117;SDS011;8163;50.118;5.342;2023-04-03T07:16:05;2.45;;;1.88;;
16117;SDS011;8163;50.118;5.342;2023-04-03T07:18:35;2.38;;;1.80;;
16117;SDS011;8163;50.118;5.342;2023-04-03T07:21:02;3.92;;;1.80;;
16117;SDS011;8163;50.118;5.342;2023-04-03T07:23:29;2.00;;;1.83;;
16117;SDS011;8163;50.118;5.342;2023-04-03T07:25:56;2.97;;;2.03;;
16117;SDS011;8163;50.118;5.342;2023-04-03T07:28:23;1.77;;;1.67;;
16117;SDS011;8163;50.118;5.342;2023-04-03T07:30:51;2.33;;;1.90;;
16117;SDS011;8163;50.118;5.342;2023-04-03T07:33:21;3.42;;;2.00;;
16117;SDS011;8163;50.118;5.342;2023-04-03T07:35:50;3.88;;;1.70;;
16117;SDS011;8163;50.118;5.342;2023-04-03T07:38:17;2.97;;;1.90;;
16117;SDS011;8163;50.118;5.342;2023-04-03T07:40:48;4.13;;;1.73;;
16117;SDS011;8163;50.118;5.342;2023-04-03T07:43:16;2.75;;;1.70;;
16117;SDS011;8163;50.118;5.342;2023-04-03T07:45:43;2.78;;;1.80;;
16117;SDS011;8163;50.118;5.342;2023-04-03T07:48:12;1.92;;;1.70;;
16117;SDS011;8163;50.118;5.342;2023-04-03T07:50:39;2.58;;;1.73;;
16117;SDS011;8163;50.118;5.342;2023-04-03T07:53:08;2.28;;;1.70;;
16117;SDS011;8163;50.118;5.342;2023-04-03T07:55:36;1.83;;;1.73;;
16117;SDS011;8163;50.118;5.342;2023-04-03T07:58:08;3.92;;;1.90;;
16117;SDS011;8163;50.118;5.342;2023-04-03T08:00:35;2.05;;;1.90;;
16117;SDS011;8163;50.118;5.342;2023-04-03T08:03:03;2.78;;;1.98;;
16117;SDS011;8163;50.118;5.342;2023-04-03T08:05:30;3.00;;;2.25;;
16117;SDS011;8163;50.118;5.342;2023-04-03T08:08:02;3.80;;;2.03;;
16117;SDS011;8163;50.118;5.342;2023-04-03T08:10:36;2.75;;;1.90;;
16117;SDS011;8163;50.118;5.342;2023-04-03T08:13:04;2.08;;;1.80;;
16117;SDS011;8163;50.118;5.342;2023-04-03T08:15:31;2.20;;;1.60;;
16117;SDS011;8163;50.118;5.342;2023-04-03T08:17:59;3.53;;;1.80;;
16117;SDS011;8163;50.118;5.342;2023-04-03T08:20:26;2.80;;;2.03;;
16117;SDS011;8163;50.118;5.342;2023-04-03T08:22:54;2.42;;;1.90;;
16117;SDS011;8163;50.118;5.342;2023-04-03T08:25:21;2.53;;;1.70;;
16117;SDS011;8163;50.118;5.342;2023-04-03T08:27:49;2.88;;;1.95;;
16117;SDS011;8163;50.118;5.342;2023-04-03T08:30:16;4.15;;;1.80;;
16117;SDS011;8163;50.118;5.342;2023-04-03T08:32:43;2.20;;;1.58;;
16117;SDS011;8163;50.118;5.342;2023-04-03T08:35:11;3.40;;;1.98;;
16117;SDS011;8163;50.118;5.342;2023-04-03T08:37:38;2.38;;;1.73;;
16117;SDS011;8163;50.118;5.342;2023-04-03T08:40:06;2.83;;;1.80;;
16117;SDS011;8163;50.118;5.342;2023-04-03T08:42:41;5.10;;;1.70;;
16117;SDS011;8163;50.118;5.342;2023-04-03T08:45:18;2.42;;;2.00;;
16117;SDS011;8163;50.118;5.342;2023-04-03T08:47:52;2.08;;;1.77;;
16117;SDS011;8163;50.118;5.342;2023-04-03T08:50:26;4.53;;;3.40;;
16117;SDS011;8163;50.118;5.342;2023-04-03T08:52:57;2.63;;;1.52;;
16117;SDS011;8163;50.118;5.342;2023-04-03T08:55:26;2.25;;;1.90;;
16117;SDS011;8163;50.118;5.342;2023-04-03T08:57:57;2.85;;;1.88;;
16117;SDS011;8163;50.118;5.342;2023-04-03T09:00:30;3.17;;;1.90;;
16117;SDS011;8163;50.118;5.342;2023-04-03T09:03:03;3.30;;;1.90;;
16117;SDS011;8163;50.118;5.342;2023-04-03T09:05:33;2.65;;;1.90;;
16117;SDS011;8163;50.118;5.342;2023-04-03T09:08:12;3.05;;;2.00;;
16117;SDS011;8163;50.118;5.342;2023-04-03T09:10:47;2.50;;;2.00;;
16117;SDS011;8163;50.118;5.342;2023-04-03T09:13:19;2.03;;;1.90;;
16117;SDS011;8163;50.118;5.342;2023-04-03T09:15:54;3.60;;;2.63;;
16117;SDS011;8163;50.118;5.342;2023-04-03T09:18:23;2.28;;;1.83;;
16117;SDS011;8163;50.118;5.342;2023-04-03T09:20:56;7.15;;;4.43;;
16117;SDS011;8163;50.118;5.342;2023-04-03T09:23:32;11.07;;;9.30;;
16117;SDS011;8163;50.118;5.342;2023-04-03T09:26:07;7.32;;;5.45;;
16117;SDS011;8163;50.118;5.342;2023-04-03T09:28:41;2.45;;;2.13;;
16117;SDS011;8163;50.118;5.342;2023-04-03T09:31:13;2.17;;;1.80;;
16117;SDS011;8163;50.118;5.342;2023-04-03T09:33:47;3.00;;;2.70;;
16117;SDS011;8163;50.118;5.342;2023-04-03T09:39:07;4.03;;;2.50;;
16117;SDS011;8163;50.118;5.342;2023-04-03T09:41:38;3.00;;;1.90;;
16117;SDS011;8163;50.118;5.342;2023-04-03T09:44:17;2.88;;;1.90;;
16117;SDS011;8163;50.118;5.342;2023-04-03T09:46:49;2.40;;;2.05;;
16117;SDS011;8163;50.118;5.342;2023-04-03T09:49:17;2.88;;;2.08;;
16117;SDS011;8163;50.118;5.342;2023-04-03T09:51:45;2.13;;;1.92;;
16117;SDS011;8163;50.118;5.342;2023-04-03T09:54:32;2.42;;;2.03;;
16117;SDS011;8163;50.118;5.342;2023-04-03T09:57:05;2.22;;;1.88;;
16117;SDS011;8163;50.118;5.342;2023-04-03T09:59:40;2.15;;;1.98;;
16117;SDS011;8163;50.118;5.342;2023-04-03T10:05:04;2.00;;;1.85;;
16117;SDS011;8163;50.118;5.342;2023-04-03T10:07:51;2.95;;;2.20;;
16117;SDS011;8163;50.118;5.342;2023-04-03T10:10:19;1.92;;;1.65;;
16117;SDS011;8163;50.118;5.342;2023-04-03T10:12:48;2.97;;;2.38;;
16117;SDS011;8163;50.118;5.342;2023-04-03T10:15:30;2.30;;;2.13;;
16117;SDS011;8163;50.118;5.342;2023-04-03T10:18:06;2.85;;;1.95;;
16117;SDS011;8163;50.118;5.342;2023-04-03T10:20:48;4.35;;;2.50;;
16117;SDS011;8163;50.118;5.342;2023-04-03T10:23:17;2.70;;;1.92;;
16117;SDS011;8163;50.118;5.342;2023-04-03T10:25:50;1.83;;;1.73;;
16117;SDS011;8163;50.118;5.342;2023-04-03T10:28:30;1.83;;;1.67;;
16117;SDS011;8163;50.118;5.342;2023-04-03T10:31:03;2.30;;;1.77;;
16117;SDS011;8163;50.118;5.342;2023-04-03T10:33:46;2.72;;;1.80;;
16117;SDS011;8163;50.118;5.342;2023-04-03T10:36:25;2.80;;;1.92;;
16117;SDS011;8163;50.118;5.342;2023-04-03T10:39:02;2.08;;;1.70;;
16117;SDS011;8163;50.118;5.342;2023-04-03T10:41:39;2.13;;;1.60;;
16117;SDS011;8163;50.118;5.342;2023-04-03T10:44:20;2.03;;;1.60;;
16117;SDS011;8163;50.118;5.342;2023-04-03T10:46:56;1.98;;;1.80;;
16117;SDS011;8163;50.118;5.342;2023-04-03T10:49:34;2.40;;;1.70;;
16117;SDS011;8163;50.118;5.342;2023-04-03T10:52:17;1.52;;;1.35;;
16117;SDS011;8163;50.118;5.342;2023-04-03T10:54:49;3.53;;;2.00;;
16117;SDS011;8163;50.118;5.342;2023-04-03T10:57:28;3.88;;;2.55;;
16117;SDS011;8163;50.118;5.342;2023-04-03T10:59:57;3.38;;;1.77;;
16117;SDS011;8163;50.118;5.342;2023-04-03T11:02:28;2.08;;;1.88;;
16117;SDS011;8163;50.118;5.342;2023-04-03T11:05:01;2.60;;;1.60;;
16117;SDS011;8163;50.118;5.342;2023-04-03T11:07:36;2.05;;;1.63;;
16117;SDS011;8163;50.118;5.342;2023-04-03T11:10:06;2.33;;;1.70;;
16117;SDS011;8163;50.118;5.342;2023-04-03T11:12:41;1.77;;;1.45;;
16117;SDS011;8163;50.118;5.342;2023-04-03T11:15:11;3.78;;;3.25;;
16117;SDS011;8163;50.118;5.342;2023-04-03T11:17:41;2.05;;;1.52;;
16117;SDS011;8163;50.118;5.342;2023-04-03T11:20:17;1.58;;;1.48;;
16117;SDS011;8163;50.118;5.342;2023-04-03T11:22:47;7.43;;;2.55;;
16117;SDS011;8163;50.118;5.342;2023-04-03T11:25:19;2.05;;;1.60;;
16117;SDS011;8163;50.118;5.342;2023-04-03T11:27:50;2.38;;;1.90;;
16117;SDS011;8163;50.118;5.342;2023-04-03T11:30:23;2.95;;;1.80;;
16117;SDS011;8163;50.118;5.342;2023-04-03T11:33:04;2.83;;;2.38;;
16117;SDS011;8163;50.118;5.342;2023-04-03T11:35:49;2.80;;;2.15;;
16117;SDS011;8163;50.118;5.342;2023-04-03T11:38:21;3.70;;;1.92;;
16117;SDS011;8163;50.118;5.342;2023-04-03T11:40:53;2.47;;;1.52;;
16117;SDS011;8163;50.118;5.342;2023-04-03T11:43:22;1.50;;;1.40;;
16117;SDS011;8163;50.118;5.342;2023-04-03T11:45:53;2.75;;;1.58;;
16117;SDS011;8163;50.118;5.342;2023-04-03T12:09:33;1.85;;;1.55;;
16117;SDS011;8163;50.118;5.342;2023-04-03T12:15:19;1.90;;;1.60;;
16117;SDS011;8163;50.118;5.342;2023-04-03T12:17:52;3.85;;;1.70;;
16117;SDS011;8163;50.118;5.342;2023-04-03T12:23:28;1.42;;;1.30;;
16117;SDS011;8163;50.118;5.342;2023-04-03T12:26:01;1.75;;;1.50;;
16117;SDS011;8163;50.118;5.342;2023-04-03T12:28:39;1.60;;;1.50;;
16117;SDS011;8163;50.118;5.342;2023-04-03T12:31:08;1.65;;;1.25;;
16117;SDS011;8163;50.118;5.342;2023-04-03T12:33:41;1.52;;;1.42;;
16117;SDS011;8163;50.118;5.342;2023-04-03T12:36:26;1.70;;;1.40;;
16117;SDS011;8163;50.118;5.342;2023-04-03T12:39:03;3.60;;;1.33;;
16117;SDS011;8163;50.118;5.342;2023-04-03T12:41:50;2.03;;;1.50;;
16117;SDS011;8163;50.118;5.342;2023-04-03T12:44:37;3.10;;;1.60;;
16117;SDS011;8163;50.118;5.342;2023-04-03T12:49:55;2.45;;;1.35;;
16117;SDS011;8163;50.118;5.342;2023-04-03T12:52:28;2.10;;;1.70;;
16117;SDS011;8163;50.118;5.342;2023-04-03T12:54:59;1.40;;;1.30;;
16117;SDS011;8163;50.118;5.342;2023-04-03T12:57:29;1.40;;;1.08;;
16117;SDS011;8163;50.118;5.342;2023-04-03T12:59:59;1.40;;;1.30;;
16117;SDS011;8163;50.118;5.342;2023-04-03T13:02:26;2.28;;;1.50;;
16117;SDS011;8163;50.118;5.342;2023-04-03T13:04:56;1.52;;;1.30;;
16117;SDS011;8163;50.118;5.342;2023-04-03T13:07:26;3.00;;;2.00;;
16117;SDS011;8163;50.118;5.342;2023-04-03T13:10:09;2.97;;;1.50;;
16117;SDS011;8163;50.118;5.342;2023-04-03T13:12:46;2.50;;;1.80;;
16117;SDS011;8163;50.118;5.342;2023-04-03T13:15:17;5.43;;;2.03;;
16117;SDS011;8163;50.118;5.342;2023-04-03T13:17:45;1.65;;;1.30;;
16117;SDS011;8163;50.118;5.342;2023-04-03T13:20:17;2.25;;;1.60;;
16117;SDS011;8163;50.118;5.342;2023-04-03T13:22:48;2.38;;;1.40;;
16117;SDS011;8163;50.118;5.342;2023-04-03T13:25:20;1.50;;;1.30;;
16117;SDS011;8163;50.118;5.342;2023-04-03T13:27:48;3.28;;;1.20;;
16117;SDS011;8163;50.118;5.342;2023-04-03T13:30:21;3.50;;;1.65;;
16117;SDS011;8163;50.118;5.342;2023-04-03T13:32:52;3.53;;;1.48;;
16117;SDS011;8163;50.118;5.342;2023-04-03T13:35:24;2.80;;;1.75;;
16117;SDS011;8163;50.118;5.342;2023-04-03T13:37:54;2.67;;;1.40;;
16117;SDS011;8163;50.118;5.342;2023-04-03T13:40:21;1.80;;;1.30;;
16117;SDS011;8163;50.118;5.342;2023-04-03T13:42:58;4.65;;;1.50;;
16117;SDS011;8163;50.118;5.342;2023-04-03T13:45:28;1.77;;;1.38;;
16117;SDS011;8163;50.118;5.342;2023-04-03T13:48:07;2.55;;;1.33;;
16117;SDS011;8163;50.118;5.342;2023-04-03T13:50:49;2.17;;;1.50;;
16117;SDS011;8163;50.118;5.342;2023-04-03T13:53:22;1.63;;;1.50;;
16117;SDS011;8163;50.118;5.342;2023-04-03T13:55:55;2.45;;;1.85;;
16117;SDS011;8163;50.118;5.342;2023-04-03T14:36:41;2.45;;;1.50;;
16117;SDS011;8163;50.118;5.342;2023-04-03T14:39:11;2.75;;;1.58;;
16117;SDS011;8163;50.118;5.342;2023-04-03T14:41:43;3.65;;;1.58;;
16117;SDS011;8163;50.118;5.342;2023-04-03T14:44:11;2.67;;;1.63;;
16117;SDS011;8163;50.118;5.342;2023-04-03T14:46:39;1.77;;;1.58;;
16117;SDS011;8163;50.118;5.342;2023-04-03T14:49:12;2.22;;;1.50;;
16117;SDS011;8163;50.118;5.342;2023-04-03T14:51:43;2.35;;;1.60;;
16117;SDS011;8163;50.118;5.342;2023-04-03T14:54:12;3.88;;;1.52;;
16117;SDS011;8163;50.118;5.342;2023-04-03T14:56:40;2.42;;;1.75;;
16117;SDS011;8163;50.118;5.342;2023-04-03T14:59:08;1.85;;;1.67;;
16117;SDS011;8163;50.118;5.342;2023-04-03T15:01:37;3.80;;;1.70;;
16117;SDS011;8163;50.118;5.342;2023-04-03T15:04:05;2.47;;;1.60;;
16117;SDS011;8163;50.118;5.342;2023-04-03T15:06:36;3.53;;;1.60;;
16117;SDS011;8163;50.118;5.342;2023-04-03T15:09:04;2.97;;;1.60;;
16117;SDS011;8163;50.118;5.342;2023-04-03T15:11:34;2.08;;;1.50;;
16117;SDS011;8163;50.118;5.342;2023-04-03T15:14:01;7.80;;;1.83;;
16117;SDS011;8163;50.118;5.342;2023-04-03T15:16:28;5.32;;;1.85;;
16117;SDS011;8163;50.118;5.342;2023-04-03T15:18:55;4.25;;;1.75;;
16117;SDS011;8163;50.118;5.342;2023-04-03T15:21:22;3.20;;;1.65;;
16117;SDS011;8163;50.118;5.342;2023-04-03T15:23:51;3.63;;;1.73;;
16117;SDS011;8163;50.118;5.342;2023-04-03T15:26:19;2.65;;;1.58;;
16117;SDS011;8163;50.118;5.342;2023-04-03T15:28:46;2.33;;;1.63;;
16117;SDS011;8163;50.118;5.342;2023-04-03T15:31:15;5.10;;;1.70;;
16117;SDS011;8163;50.118;5.342;2023-04-03T15:33:42;3.42;;;1.80;;
16117;SDS011;8163;50.118;5.342;2023-04-03T15:36:09;3.88;;;1.42;;
16117;SDS011;8163;50.118;5.342;2023-04-03T15:38:37;4.57;;;1.70;;
16117;SDS011;8163;50.118;5.342;2023-04-03T15:41:04;7.25;;;2.10;;
16117;SDS011;8163;50.118;5.342;2023-04-03T15:43:33;3.13;;;1.83;;
16117;SDS011;8163;50.118;5.342;2023-04-03T15:46:02;1.67;;;1.38;;
16117;SDS011;8163;50.118;5.342;2023-04-03T15:48:29;2.92;;;2.00;;
16117;SDS011;8163;50.118;5.342;2023-04-03T15:50:56;1.88;;;1.42;;
16117;SDS011;8163;50.118;5.342;2023-04-03T15:53:23;2.63;;;1.60;;
16117;SDS011;8163;50.118;5.342;2023-04-03T15:55:50;4.53;;;1.70;;
16117;SDS011;8163;50.118;5.342;2023-04-03T15:58:17;1.77;;;1.52;;
16117;SDS011;8163;50.118;5.342;2023-04-03T16:00:46;2.40;;;1.50;;
16117;SDS011;8163;50.118;5.342;2023-04-03T16:03:15;3.45;;;1.75;;
16117;SDS011;8163;50.118;5.342;2023-04-03T16:05:46;2.13;;;1.58;;
16117;SDS011;8163;50.118;5.342;2023-04-03T16:08:15;4.43;;;1.67;;
16117;SDS011;8163;50.118;5.342;2023-04-03T16:10:43;2.13;;;1.50;;
16117;SDS011;8163;50.118;5.342;2023-04-03T16:13:12;1.63;;;1.50;;
16117;SDS011;8163;50.118;5.342;2023-04-03T16:15:40;3.30;;;1.60;;
16117;SDS011;8163;50.118;5.342;2023-04-03T16:18:09;4.35;;;1.75;;
16117;SDS011;8163;50.118;5.342;2023-04-03T16:20:38;2.15;;;1.30;;
16117;SDS011;8163;50.118;5.342;2023-04-03T16:23:05;4.57;;;1.60;;
16117;SDS011;8163;50.118;5.342;2023-04-03T16:25:32;1.33;;;1.23;;
16117;SDS011;8163;50.118;5.342;2023-04-03T16:27:59;4.60;;;1.40;;
16117;SDS011;8163;50.118;5.342;2023-04-03T16:30:26;1.83;;;1.65;;